OMA611 OOMS-OMDB
Flight info
| Callsign | OMA611 |
|---|---|
| Flight time | 0h 47m |
| Altitude | 32000 |
| Route | MURMA DCT DAPOK/N0404F200 T508 SOLUD P574 IMPED |
| Aircraft | B38M/M-SDE1FGHILORVWXY/HB1 |
Departure
| Time | 2026-04-25 06:21 |
|---|---|
| Airport | Muscat International Airport (OOMS) |
Arrival
| Time | 2026-04-25 07:09 |
|---|---|
| Airport | Dubai International Airport (OMDB) |
| Time | Latitude | Longitude | Altitude | Speed | Heading |
|---|---|---|---|---|---|
| 2026-04-25 05:43 | 23.59820 | 58.28816 | 33 ft | 0 kts | 265° |
| 2026-04-25 06:04 | 23.59821 | 58.28827 | 33 ft | 2 kts | 263° |
| 2026-04-25 06:05 | 23.59823 | 58.28845 | 33 ft | 2 kts | 262° |
| 2026-04-25 06:05 | 23.59825 | 58.28862 | 33 ft | 2 kts | 259° |
| 2026-04-25 06:05 | 23.59829 | 58.28880 | 33 ft | 2 kts | 252° |
| 2026-04-25 06:05 | 23.59836 | 58.28896 | 33 ft | 2 kts | 232° |
| 2026-04-25 06:06 | 23.59849 | 58.28906 | 33 ft | 2 kts | 185° |
| 2026-04-25 06:06 | 23.59857 | 58.28906 | 33 ft | 0 kts | 176° |
| 2026-04-25 06:10 | 23.59854 | 58.28906 | 33 ft | 2 kts | 176° |
| 2026-04-25 06:11 | 23.59831 | 58.28908 | 33 ft | 5 kts | 176° |
| 2026-04-25 06:11 | 23.59805 | 58.28910 | 33 ft | 7 kts | 175° |
| 2026-04-25 06:11 | 23.59727 | 58.28918 | 33 ft | 10 kts | 174° |
| 2026-04-25 06:11 | 23.59652 | 58.28914 | 33 ft | 10 kts | 213° |
| 2026-04-25 06:12 | 23.59636 | 58.28874 | 33 ft | 4 kts | 271° |
| 2026-04-25 06:12 | 23.59637 | 58.28846 | 33 ft | 7 kts | 271° |
| 2026-04-25 06:12 | 23.59634 | 58.28785 | 33 ft | 10 kts | 266° |
| 2026-04-25 06:12 | 23.59628 | 58.28700 | 33 ft | 13 kts | 263° |
| 2026-04-25 06:13 | 23.59618 | 58.28593 | 33 ft | 16 kts | 264° |
| 2026-04-25 06:13 | 23.59609 | 58.28464 | 33 ft | 18 kts | 265° |
| 2026-04-25 06:13 | 23.59597 | 58.28316 | 33 ft | 21 kts | 265° |
| 2026-04-25 06:14 | 23.59568 | 58.27959 | 34 ft | 26 kts | 265° |
| 2026-04-25 06:14 | 23.59551 | 58.27755 | 34 ft | 28 kts | 265° |
| 2026-04-25 06:14 | 23.59533 | 58.27535 | 33 ft | 30 kts | 265° |
| 2026-04-25 06:14 | 23.59541 | 58.27392 | 33 ft | 17 kts | 316° |
| 2026-04-25 06:15 | 23.59663 | 58.27365 | 33 ft | 19 kts | 355° |
| 2026-04-25 06:15 | 23.59806 | 58.27352 | 34 ft | 22 kts | 355° |
| 2026-04-25 06:15 | 23.59964 | 58.27337 | 34 ft | 24 kts | 354° |
| 2026-04-25 06:15 | 23.60137 | 58.27321 | 34 ft | 26 kts | 355° |
| 2026-04-25 06:16 | 23.60322 | 58.27304 | 34 ft | 28 kts | 355° |
| 2026-04-25 06:16 | 23.60443 | 58.27314 | 34 ft | 12 kts | 60° |
| 2026-04-25 06:16 | 23.60461 | 58.27411 | 34 ft | 15 kts | 85° |
| 2026-04-25 06:16 | 23.60471 | 58.27534 | 33 ft | 18 kts | 84° |
| 2026-04-25 06:17 | 23.60482 | 58.27679 | 33 ft | 21 kts | 85° |
| 2026-04-25 06:17 | 23.60496 | 58.27845 | 33 ft | 23 kts | 85° |
| 2026-04-25 06:17 | 23.60510 | 58.28032 | 33 ft | 26 kts | 85° |
| 2026-04-25 06:17 | 23.60526 | 58.28233 | 32 ft | 28 kts | 85° |
| 2026-04-25 06:18 | 23.60542 | 58.28428 | 32 ft | 19 kts | 84° |
| 2026-04-25 06:18 | 23.60555 | 58.28577 | 32 ft | 21 kts | 85° |
| 2026-04-25 06:18 | 23.60569 | 58.28747 | 32 ft | 24 kts | 85° |
| 2026-04-25 06:18 | 23.60584 | 58.28937 | 32 ft | 26 kts | 85° |
| 2026-04-25 06:19 | 23.60600 | 58.29146 | 31 ft | 29 kts | 85° |
| 2026-04-25 06:19 | 23.60618 | 58.29373 | 31 ft | 31 kts | 85° |
| 2026-04-25 06:19 | 23.60633 | 58.29561 | 30 ft | 17 kts | 82° |
| 2026-04-25 06:19 | 23.60731 | 58.29606 | 30 ft | 18 kts | 355° |
| 2026-04-25 06:20 | 23.60867 | 58.29581 | 29 ft | 20 kts | 328° |
| 2026-04-25 06:20 | 23.60877 | 58.29450 | 30 ft | 22 kts | 269° |
| 2026-04-25 06:20 | 23.60866 | 58.29178 | 31 ft | 59 kts | 265° |
| 2026-04-25 06:20 | 23.60817 | 58.28560 | 32 ft | 105 kts | 265° |
| 2026-04-25 06:21 | 23.60741 | 58.27609 | 32 ft | 145 kts | 264° |
| 2026-04-25 06:21 | 23.60646 | 58.26409 | 168 ft | 166 kts | 265° |
| 2026-04-25 06:21 | 23.60578 | 58.25136 | 623 ft | 175 kts | 269° |
| 2026-04-25 06:21 | 23.60826 | 58.23799 | 952 ft | 183 kts | 297° |
| 2026-04-25 06:22 | 23.61454 | 58.22598 | 1458 ft | 184 kts | 300° |
| 2026-04-25 06:22 | 23.61959 | 58.21245 | 1913 ft | 202 kts | 286° |
| 2026-04-25 06:22 | 23.62376 | 58.19708 | 2398 ft | 220 kts | 287° |
| 2026-04-25 06:22 | 23.62885 | 58.18072 | 2863 ft | 236 kts | 294° |
| 2026-04-25 06:23 | 23.63742 | 58.16436 | 3228 ft | 261 kts | 302° |
| 2026-04-25 06:23 | 23.64716 | 58.14705 | 3869 ft | 273 kts | 301° |
| 2026-04-25 06:23 | 23.65708 | 58.12920 | 4684 ft | 276 kts | 301° |
| 2026-04-25 06:23 | 23.66701 | 58.11118 | 5530 ft | 279 kts | 301° |
| 2026-04-25 06:24 | 23.67702 | 58.09292 | 6388 ft | 282 kts | 301° |
| 2026-04-25 06:24 | 23.68712 | 58.07448 | 7212 ft | 285 kts | 301° |
| 2026-04-25 06:24 | 23.69729 | 58.05585 | 8071 ft | 287 kts | 301° |
| 2026-04-25 06:24 | 23.70742 | 58.03727 | 8912 ft | 290 kts | 301° |
| 2026-04-25 06:25 | 23.71781 | 58.01821 | 9802 ft | 293 kts | 301° |
| 2026-04-25 06:25 | 23.72833 | 57.99891 | 10537 ft | 301 kts | 301° |
| 2026-04-25 06:25 | 23.73932 | 57.97873 | 11043 ft | 318 kts | 301° |
| 2026-04-25 06:25 | 23.75092 | 57.95739 | 11474 ft | 336 kts | 301° |
| 2026-04-25 06:26 | 23.76305 | 57.93508 | 12040 ft | 348 kts | 301° |
| 2026-04-25 06:26 | 23.77546 | 57.91226 | 12863 ft | 350 kts | 301° |
| 2026-04-25 06:26 | 23.78798 | 57.88923 | 13709 ft | 355 kts | 301° |
| 2026-04-25 06:26 | 23.80070 | 57.86583 | 14429 ft | 359 kts | 301° |
| 2026-04-25 06:27 | 23.81348 | 57.84230 | 15217 ft | 363 kts | 301° |
| 2026-04-25 06:27 | 23.82643 | 57.81845 | 15949 ft | 367 kts | 301° |
| 2026-04-25 06:27 | 23.83953 | 57.79431 | 16687 ft | 370 kts | 301° |
| 2026-04-25 06:27 | 23.85276 | 57.76991 | 17413 ft | 374 kts | 301° |
| 2026-04-25 06:28 | 23.86593 | 57.74562 | 18079 ft | 378 kts | 300° |
| 2026-04-25 06:28 | 23.87941 | 57.72075 | 18690 ft | 382 kts | 300° |
| 2026-04-25 06:28 | 23.89299 | 57.69567 | 19308 ft | 384 kts | 300° |
| 2026-04-25 06:28 | 23.90670 | 57.67035 | 19818 ft | 388 kts | 300° |
| 2026-04-25 06:29 | 23.92063 | 57.64461 | 19873 ft | 401 kts | 300° |
| 2026-04-25 06:29 | 23.93508 | 57.61789 | 19872 ft | 416 kts | 300° |
| 2026-04-25 06:29 | 23.95000 | 57.59027 | 19875 ft | 427 kts | 300° |
| 2026-04-25 06:29 | 23.96523 | 57.56208 | 19883 ft | 433 kts | 300° |
| 2026-04-25 06:30 | 23.98057 | 57.53367 | 19902 ft | 435 kts | 300° |
| 2026-04-25 06:30 | 23.99602 | 57.50523 | 19914 ft | 435 kts | 302° |
| 2026-04-25 06:30 | 24.01412 | 57.47867 | 19921 ft | 436 kts | 308° |
| 2026-04-25 06:30 | 24.03277 | 57.45250 | 19918 ft | 436 kts | 307° |
| 2026-04-25 06:31 | 24.05148 | 57.42631 | 19922 ft | 436 kts | 307° |
| 2026-04-25 06:31 | 24.07012 | 57.40023 | 19922 ft | 436 kts | 307° |
| 2026-04-25 06:31 | 24.08864 | 57.37433 | 19922 ft | 436 kts | 307° |
| 2026-04-25 06:31 | 24.10730 | 57.34820 | 19922 ft | 436 kts | 307° |
| 2026-04-25 06:32 | 24.12600 | 57.32202 | 19926 ft | 436 kts | 307° |
| 2026-04-25 06:32 | 24.14470 | 57.29583 | 19927 ft | 436 kts | 307° |
| 2026-04-25 06:32 | 24.16338 | 57.26965 | 19926 ft | 436 kts | 307° |
| 2026-04-25 06:32 | 24.18208 | 57.24342 | 19925 ft | 436 kts | 307° |
| 2026-04-25 06:33 | 24.20077 | 57.21720 | 19923 ft | 436 kts | 307° |
| 2026-04-25 06:33 | 24.21943 | 57.19101 | 19921 ft | 436 kts | 307° |
| 2026-04-25 06:33 | 24.23813 | 57.16474 | 19923 ft | 436 kts | 307° |
| 2026-04-25 06:33 | 24.25679 | 57.13851 | 19923 ft | 436 kts | 307° |
| 2026-04-25 06:34 | 24.27544 | 57.11229 | 19921 ft | 436 kts | 307° |
| 2026-04-25 06:34 | 24.29410 | 57.08604 | 19924 ft | 436 kts | 307° |
| 2026-04-25 06:34 | 24.31279 | 57.05973 | 19926 ft | 437 kts | 307° |
| 2026-04-25 06:34 | 24.33121 | 57.03379 | 19925 ft | 437 kts | 307° |
| 2026-04-25 06:35 | 24.34987 | 57.00750 | 19923 ft | 437 kts | 307° |
| 2026-04-25 06:35 | 24.36854 | 56.98117 | 19921 ft | 437 kts | 307° |
| 2026-04-25 06:35 | 24.38722 | 56.95482 | 19920 ft | 437 kts | 307° |
| 2026-04-25 06:35 | 24.40595 | 56.92839 | 19918 ft | 437 kts | 307° |
| 2026-04-25 06:36 | 24.42465 | 56.90198 | 19923 ft | 437 kts | 307° |
| 2026-04-25 06:36 | 24.44331 | 56.87561 | 19918 ft | 437 kts | 307° |
| 2026-04-25 06:36 | 24.46196 | 56.84925 | 19920 ft | 437 kts | 307° |
| 2026-04-25 06:36 | 24.48062 | 56.82286 | 19919 ft | 437 kts | 307° |
| 2026-04-25 06:37 | 24.49925 | 56.79650 | 19917 ft | 437 kts | 307° |
| 2026-04-25 06:37 | 24.51763 | 56.77047 | 19915 ft | 437 kts | 307° |
| 2026-04-25 06:37 | 24.53623 | 56.74414 | 19916 ft | 437 kts | 307° |
| 2026-04-25 06:37 | 24.55495 | 56.71769 | 19919 ft | 437 kts | 307° |
| 2026-04-25 06:38 | 24.57356 | 56.69137 | 19918 ft | 437 kts | 307° |
| 2026-04-25 06:38 | 24.59225 | 56.66493 | 19921 ft | 437 kts | 307° |
| 2026-04-25 06:38 | 24.61091 | 56.63852 | 19921 ft | 437 kts | 307° |
| 2026-04-25 06:38 | 24.62954 | 56.61213 | 19922 ft | 437 kts | 307° |
| 2026-04-25 06:39 | 24.64818 | 56.58572 | 19928 ft | 437 kts | 307° |
| 2026-04-25 06:39 | 24.66670 | 56.55946 | 19946 ft | 430 kts | 307° |
| 2026-04-25 06:39 | 24.68492 | 56.53362 | 19883 ft | 425 kts | 306° |
| 2026-04-25 06:39 | 24.70271 | 56.50834 | 19643 ft | 422 kts | 307° |
| 2026-04-25 06:40 | 24.72060 | 56.48294 | 19110 ft | 419 kts | 307° |
| 2026-04-25 06:40 | 24.73840 | 56.45763 | 18509 ft | 417 kts | 307° |
| 2026-04-25 06:40 | 24.75615 | 56.43238 | 17817 ft | 417 kts | 307° |
| 2026-04-25 06:40 | 24.77381 | 56.40725 | 17158 ft | 414 kts | 307° |
| 2026-04-25 06:41 | 24.79132 | 56.38224 | 16518 ft | 410 kts | 306° |
| 2026-04-25 06:41 | 24.80832 | 56.35714 | 15807 ft | 408 kts | 306° |
| 2026-04-25 06:41 | 24.82518 | 56.33220 | 15220 ft | 404 kts | 306° |
| 2026-04-25 06:41 | 24.84188 | 56.30753 | 14632 ft | 400 kts | 306° |
| 2026-04-25 06:42 | 24.85843 | 56.28308 | 14043 ft | 396 kts | 306° |
| 2026-04-25 06:42 | 24.87471 | 56.25895 | 13721 ft | 385 kts | 305° |
| 2026-04-25 06:42 | 24.88792 | 56.23398 | 13446 ft | 372 kts | 298° |
| 2026-04-25 06:42 | 24.90031 | 56.20941 | 13205 ft | 360 kts | 299° |
| 2026-04-25 06:43 | 24.91241 | 56.18582 | 13013 ft | 347 kts | 299° |
| 2026-04-25 06:43 | 24.92419 | 56.16308 | 12812 ft | 335 kts | 299° |
| 2026-04-25 06:43 | 24.93559 | 56.14115 | 12642 ft | 324 kts | 299° |
| 2026-04-25 06:43 | 24.94648 | 56.12027 | 12451 ft | 313 kts | 299° |
| 2026-04-25 06:44 | 24.95717 | 56.09977 | 12276 ft | 303 kts | 298° |
| 2026-04-25 06:44 | 24.96751 | 56.07996 | 12104 ft | 293 kts | 299° |
| 2026-04-25 06:44 | 24.97849 | 56.06146 | 11930 ft | 285 kts | 309° |
| 2026-04-25 06:44 | 24.99175 | 56.04567 | 11751 ft | 276 kts | 311° |
| 2026-04-25 06:45 | 25.00467 | 56.03008 | 11592 ft | 276 kts | 311° |
| 2026-04-25 06:45 | 25.01758 | 56.01438 | 11402 ft | 276 kts | 310° |
| 2026-04-25 06:45 | 25.03046 | 55.99868 | 11228 ft | 275 kts | 310° |
| 2026-04-25 06:45 | 25.04325 | 55.98306 | 11052 ft | 275 kts | 310° |
| 2026-04-25 06:46 | 25.05604 | 55.96742 | 10875 ft | 274 kts | 310° |
| 2026-04-25 06:46 | 25.06878 | 55.95180 | 10689 ft | 273 kts | 310° |
| 2026-04-25 06:46 | 25.08148 | 55.93623 | 10497 ft | 272 kts | 310° |
| 2026-04-25 06:46 | 25.09392 | 55.92097 | 10336 ft | 271 kts | 310° |
| 2026-04-25 06:47 | 25.10669 | 55.90531 | 10158 ft | 270 kts | 310° |
| 2026-04-25 06:47 | 25.11909 | 55.89009 | 9995 ft | 270 kts | 310° |
| 2026-04-25 06:47 | 25.13161 | 55.87472 | 9822 ft | 269 kts | 310° |
| 2026-04-25 06:47 | 25.14410 | 55.85937 | 9633 ft | 268 kts | 310° |
| 2026-04-25 06:48 | 25.15644 | 55.84398 | 9424 ft | 267 kts | 307° |
| 2026-04-25 06:48 | 25.16650 | 55.82686 | 9221 ft | 265 kts | 300° |
| 2026-04-25 06:48 | 25.17600 | 55.80950 | 9018 ft | 265 kts | 300° |
| 2026-04-25 06:48 | 25.18564 | 55.79206 | 8801 ft | 264 kts | 300° |
| 2026-04-25 06:49 | 25.19521 | 55.77477 | 8612 ft | 263 kts | 300° |
| 2026-04-25 06:49 | 25.20462 | 55.75782 | 8388 ft | 262 kts | 300° |
| 2026-04-25 06:49 | 25.21416 | 55.74067 | 8202 ft | 261 kts | 300° |
| 2026-04-25 06:49 | 25.22364 | 55.72363 | 8007 ft | 259 kts | 301° |
| 2026-04-25 06:50 | 25.23307 | 55.70675 | 7729 ft | 257 kts | 301° |
| 2026-04-25 06:50 | 25.24244 | 55.68999 | 7435 ft | 255 kts | 301° |
| 2026-04-25 06:50 | 25.25168 | 55.67344 | 7170 ft | 251 kts | 301° |
| 2026-04-25 06:50 | 25.26080 | 55.65709 | 6903 ft | 248 kts | 301° |
| 2026-04-25 06:51 | 25.26979 | 55.64096 | 6631 ft | 245 kts | 301° |
| 2026-04-25 06:51 | 25.27868 | 55.62501 | 6379 ft | 242 kts | 301° |
| 2026-04-25 06:51 | 25.28744 | 55.60925 | 6125 ft | 239 kts | 301° |
| 2026-04-25 06:51 | 25.29323 | 55.59252 | 5937 ft | 231 kts | 274° |
| 2026-04-25 06:52 | 25.29031 | 55.57571 | 5879 ft | 220 kts | 244° |
| 2026-04-25 06:52 | 25.28032 | 55.56308 | 5851 ft | 225 kts | 214° |
| 2026-04-25 06:52 | 25.26544 | 55.55703 | 5820 ft | 234 kts | 187° |
| 2026-04-25 06:52 | 25.24908 | 55.55896 | 5790 ft | 240 kts | 168° |
| 2026-04-25 06:53 | 25.23292 | 55.56404 | 5729 ft | 243 kts | 155° |
| 2026-04-25 06:53 | 25.21989 | 55.57558 | 5657 ft | 243 kts | 127° |
| 2026-04-25 06:53 | 25.21049 | 55.59115 | 5634 ft | 245 kts | 123° |
| 2026-04-25 06:53 | 25.20136 | 55.60672 | 5572 ft | 244 kts | 122° |
| 2026-04-25 06:54 | 25.19223 | 55.62259 | 5515 ft | 245 kts | 122° |
| 2026-04-25 06:54 | 25.18323 | 55.63844 | 5442 ft | 244 kts | 122° |
| 2026-04-25 06:54 | 25.17425 | 55.65435 | 5398 ft | 243 kts | 122° |
| 2026-04-25 06:54 | 25.16533 | 55.67026 | 5346 ft | 243 kts | 121° |
| 2026-04-25 06:55 | 25.15643 | 55.68614 | 5288 ft | 243 kts | 121° |
| 2026-04-25 06:55 | 25.14754 | 55.70205 | 5229 ft | 243 kts | 121° |
| 2026-04-25 06:55 | 25.13877 | 55.71775 | 5167 ft | 242 kts | 121° |
| 2026-04-25 06:55 | 25.12995 | 55.73355 | 5117 ft | 241 kts | 121° |
| 2026-04-25 06:56 | 25.12120 | 55.74918 | 5069 ft | 234 kts | 121° |
| 2026-04-25 06:56 | 25.11299 | 55.76389 | 5096 ft | 215 kts | 121° |
| 2026-04-25 06:56 | 25.10533 | 55.77759 | 5048 ft | 207 kts | 121° |
| 2026-04-25 06:56 | 25.09776 | 55.79111 | 4959 ft | 206 kts | 121° |
| 2026-04-25 06:57 | 25.09030 | 55.80446 | 4904 ft | 207 kts | 121° |
| 2026-04-25 06:57 | 25.08276 | 55.81793 | 4848 ft | 206 kts | 121° |
| 2026-04-25 06:57 | 25.07520 | 55.83144 | 4791 ft | 206 kts | 121° |
| 2026-04-25 06:57 | 25.06704 | 55.84442 | 4727 ft | 207 kts | 135° |
| 2026-04-25 06:58 | 25.05920 | 55.85010 | 4644 ft | 204 kts | 161° |
| 2026-04-25 06:58 | 25.04085 | 55.85002 | 4625 ft | 200 kts | 203° |
| 2026-04-25 06:58 | 25.02945 | 55.84164 | 4615 ft | 197 kts | 231° |
| 2026-04-25 06:58 | 25.02497 | 55.83313 | 4587 ft | 193 kts | 255° |
| 2026-04-25 06:59 | 25.02468 | 55.81857 | 4603 ft | 191 kts | 280° |
| 2026-04-25 06:59 | 25.02673 | 55.80396 | 4561 ft | 192 kts | 280° |
| 2026-04-25 06:59 | 25.03088 | 55.78508 | 4445 ft | 192 kts | 289° |
| 2026-04-25 06:59 | 25.03372 | 55.77582 | 4393 ft | 191 kts | 291° |
| 2026-04-25 07:00 | 25.03846 | 55.76211 | 4332 ft | 191 kts | 293° |
| 2026-04-25 07:00 | 25.04568 | 55.74414 | 4262 ft | 190 kts | 296° |
| 2026-04-25 07:00 | 25.04953 | 55.73548 | 4241 ft | 190 kts | 297° |
| 2026-04-25 07:00 | 25.05556 | 55.72271 | 4165 ft | 189 kts | 299° |
| 2026-04-25 07:01 | 25.06194 | 55.71000 | 4126 ft | 190 kts | 300° |
| 2026-04-25 07:01 | 25.06859 | 55.69727 | 4106 ft | 190 kts | 301° |
| 2026-04-25 07:01 | 25.07521 | 55.68481 | 4043 ft | 189 kts | 302° |
| 2026-04-25 07:01 | 25.08205 | 55.67218 | 4020 ft | 189 kts | 302° |
| 2026-04-25 07:02 | 25.08874 | 55.65994 | 3964 ft | 189 kts | 302° |
| 2026-04-25 07:02 | 25.09559 | 55.64749 | 3936 ft | 189 kts | 302° |
| 2026-04-25 07:02 | 25.10242 | 55.63512 | 3885 ft | 188 kts | 302° |
| 2026-04-25 07:02 | 25.10925 | 55.62279 | 3836 ft | 189 kts | 302° |
| 2026-04-25 07:03 | 25.11601 | 55.61063 | 3804 ft | 181 kts | 302° |
| 2026-04-25 07:03 | 25.12252 | 55.59894 | 3755 ft | 177 kts | 302° |
| 2026-04-25 07:03 | 25.12896 | 55.58748 | 3713 ft | 174 kts | 303° |
| 2026-04-25 07:03 | 25.13524 | 55.57634 | 3524 ft | 168 kts | 303° |
| 2026-04-25 07:04 | 25.14132 | 55.56552 | 3342 ft | 165 kts | 303° |
| 2026-04-25 07:04 | 25.14737 | 55.55468 | 3137 ft | 165 kts | 303° |
| 2026-04-25 07:04 | 25.15333 | 55.54395 | 2959 ft | 160 kts | 302° |
| 2026-04-25 07:04 | 25.15894 | 55.53383 | 2751 ft | 150 kts | 303° |
| 2026-04-25 07:05 | 25.16426 | 55.52421 | 2583 ft | 148 kts | 303° |
| 2026-04-25 07:05 | 25.16968 | 55.51455 | 2397 ft | 148 kts | 304° |
| 2026-04-25 07:05 | 25.17507 | 55.50488 | 2220 ft | 146 kts | 303° |
| 2026-04-25 07:05 | 25.18029 | 55.49544 | 2020 ft | 145 kts | 303° |
| 2026-04-25 07:06 | 25.18557 | 55.48593 | 1850 ft | 145 kts | 303° |
| 2026-04-25 07:06 | 25.19083 | 55.47640 | 1670 ft | 145 kts | 303° |
| 2026-04-25 07:06 | 25.19608 | 55.46694 | 1479 ft | 143 kts | 302° |
| 2026-04-25 07:06 | 25.20128 | 55.45756 | 1323 ft | 143 kts | 302° |
| 2026-04-25 07:07 | 25.20645 | 55.44819 | 1140 ft | 141 kts | 302° |
| 2026-04-25 07:07 | 25.21166 | 55.43885 | 911 ft | 142 kts | 303° |
| 2026-04-25 07:07 | 25.21705 | 55.42986 | 770 ft | 142 kts | 303° |
| 2026-04-25 07:07 | 25.22227 | 55.42082 | 611 ft | 138 kts | 300° |
| 2026-04-25 07:08 | 25.22711 | 55.41154 | 417 ft | 141 kts | 300° |
| 2026-04-25 07:08 | 25.23208 | 55.40214 | 221 ft | 143 kts | 300° |
| 2026-04-25 07:08 | 25.23706 | 55.39291 | 60 ft | 139 kts | 302° |
| 2026-04-25 07:08 | 25.24179 | 55.38428 | 34 ft | 114 kts | 301° |
| 2026-04-25 07:09 | 25.24494 | 55.37861 | 32 ft | 70 kts | 301° |
| 2026-04-25 07:09 | 25.24679 | 55.37526 | 30 ft | 21 kts | 301° |
| 2026-04-25 07:09 | 25.24744 | 55.37398 | 31 ft | 11 kts | 292° |
| 2026-04-25 07:09 | 25.24770 | 55.37313 | 32 ft | 13 kts | 284° |
| 2026-04-25 07:10 | 25.24786 | 55.37210 | 32 ft | 15 kts | 275° |
| 2026-04-25 07:10 | 25.24787 | 55.37138 | 29 ft | 3 kts | 269° |
| 2026-04-25 07:10 | 25.24788 | 55.37094 | 28 ft | 9 kts | 273° |
| 2026-04-25 07:10 | 25.24788 | 55.37088 | 28 ft | 0 kts | 273° |
| 2026-04-25 07:12 | 25.24788 | 55.37083 | 28 ft | 3 kts | 273° |
| 2026-04-25 07:13 | 25.24791 | 55.37042 | 27 ft | 8 kts | 273° |
| 2026-04-25 07:13 | 25.24800 | 55.36964 | 26 ft | 12 kts | 287° |
| 2026-04-25 07:13 | 25.24842 | 55.36870 | 27 ft | 15 kts | 293° |
| 2026-04-25 07:13 | 25.24871 | 55.36747 | 27 ft | 18 kts | 283° |
| 2026-04-25 07:14 | 25.24923 | 55.36612 | 27 ft | 20 kts | 301° |
| 2026-04-25 07:14 | 25.24997 | 55.36482 | 27 ft | 20 kts | 302° |
| 2026-04-25 07:14 | 25.25071 | 55.36349 | 26 ft | 21 kts | 302° |
| 2026-04-25 07:14 | 25.25153 | 55.36203 | 26 ft | 24 kts | 301° |
| 2026-04-25 07:15 | 25.25237 | 55.36053 | 25 ft | 24 kts | 301° |
| 2026-04-25 07:15 | 25.25313 | 55.35919 | 24 ft | 16 kts | 302° |
| 2026-04-25 07:15 | 25.25376 | 55.35807 | 25 ft | 19 kts | 302° |
| 2026-04-25 07:15 | 25.25449 | 55.35675 | 25 ft | 21 kts | 302° |
| 2026-04-25 07:16 | 25.25533 | 55.35526 | 25 ft | 24 kts | 302° |
| 2026-04-25 07:16 | 25.25625 | 55.35363 | 24 ft | 26 kts | 302° |
| 2026-04-25 07:16 | 25.25679 | 55.35267 | 25 ft | 12 kts | 302° |
| 2026-04-25 07:16 | 25.25681 | 55.35263 | 25 ft | 0 kts | 302° |
| 2026-04-25 07:17 | 25.25687 | 55.35253 | 24 ft | 3 kts | 302° |
| 2026-04-25 07:17 | 25.25706 | 55.35219 | 25 ft | 7 kts | 301° |
| 2026-04-25 07:17 | 25.25738 | 55.35162 | 25 ft | 10 kts | 301° |
| 2026-04-25 07:17 | 25.25780 | 55.35085 | 25 ft | 13 kts | 300° |
| 2026-04-25 07:18 | 25.25833 | 55.34986 | 25 ft | 17 kts | 301° |
| 2026-04-25 07:18 | 25.25899 | 55.34868 | 24 ft | 19 kts | 302° |
| 2026-04-25 07:18 | 25.25977 | 55.34732 | 24 ft | 22 kts | 302° |
| 2026-04-25 07:18 | 25.26047 | 55.34606 | 25 ft | 17 kts | 301° |
| 2026-04-25 07:19 | 25.26112 | 55.34490 | 25 ft | 14 kts | 302° |
| 2026-04-25 07:19 | 25.26116 | 55.34430 | 28 ft | 9 kts | 231° |
| 2026-04-25 07:19 | 25.26056 | 55.34384 | 24 ft | 12 kts | 211° |
| 2026-04-25 07:19 | 25.25988 | 55.34338 | 26 ft | 1 kts | 211° |
| 2026-04-25 07:20 | 25.25974 | 55.34329 | 24 ft | 4 kts | 211° |
| 2026-04-25 07:20 | 25.25965 | 55.34323 | 26 ft | 0 kts | 211° |